createdAt,value
2022-08-17T00:01:31.445Z,3.78
2022-08-17T00:04:18.955Z,4.45
2022-08-17T00:06:45.884Z,3.13
2022-08-17T00:09:19.026Z,3.20
2022-08-17T00:12:41.532Z,3.85
2022-08-17T00:14:35.095Z,4.20
2022-08-17T00:17:03.713Z,4.63
2022-08-17T00:19:32.355Z,4.90
2022-08-17T00:22:33.585Z,4.20
2022-08-17T00:24:47.171Z,3.47
2022-08-17T00:27:13.741Z,5.72
2022-08-17T00:29:40.435Z,3.50
2022-08-17T00:33:15.411Z,5.00
2022-08-17T00:34:53.890Z,3.88
2022-08-17T00:37:20.353Z,3.33
2022-08-17T00:39:46.825Z,4.45
2022-08-17T00:42:18.347Z,3.72
2022-08-17T00:44:45.567Z,4.22
2022-08-17T00:47:12.002Z,4.78
2022-08-17T00:49:38.452Z,3.47
2022-08-17T00:52:15.576Z,3.92
2022-08-17T00:54:46.845Z,3.47
2022-08-17T00:57:23.610Z,4.05
2022-08-17T01:00:02.565Z,5.07
2022-08-17T01:02:34.410Z,3.25
2022-08-17T01:05:08.651Z,5.43
2022-08-17T01:07:37.983Z,4.57
2022-08-17T01:10:59.139Z,3.78
2022-08-17T01:12:56.923Z,3.13
2022-08-17T01:15:23.513Z,4.40
2022-08-17T01:17:50.267Z,3.72
2022-08-17T01:20:16.835Z,3.95
2022-08-17T01:22:43.498Z,4.10
2022-08-17T01:25:12.559Z,5.43
2022-08-17T01:27:40.695Z,5.15
2022-08-17T01:30:58.911Z,3.95
2022-08-17T01:32:58.025Z,6.22
2022-08-17T01:35:24.573Z,3.78
2022-08-17T01:37:51.066Z,4.20
2022-08-17T01:40:33.487Z,4.20
2022-08-17T01:43:04.448Z,4.03
2022-08-17T01:45:33.723Z,5.03
2022-08-17T01:48:01.182Z,3.75
2022-08-17T01:50:34.798Z,3.70
2022-08-17T01:53:08.895Z,5.93
2022-08-17T01:55:45.282Z,3.60
2022-08-17T01:58:12.105Z,5.05
2022-08-17T02:00:47.801Z,4.03
2022-08-17T02:03:26.975Z,3.70
2022-08-17T02:05:53.567Z,4.03
2022-08-17T02:08:38.998Z,4.53
2022-08-17T02:11:14.492Z,3.55
2022-08-17T02:13:41.946Z,3.93
2022-08-17T02:16:08.384Z,3.60
2022-08-17T02:18:34.986Z,3.90
2022-08-17T02:21:02.031Z,4.25
2022-08-17T02:23:30.640Z,4.20
2022-08-17T02:25:59.993Z,4.32
2022-08-17T02:28:28.284Z,5.90
2022-08-17T02:31:01.228Z,3.88
2022-08-17T02:33:37.169Z,4.45
2022-08-17T02:36:12.017Z,4.80
2022-08-17T02:38:39.722Z,4.47
2022-08-17T02:41:06.477Z,3.67
2022-08-17T02:43:33.013Z,5.53
2022-08-17T02:45:59.946Z,4.78
2022-08-17T02:48:31.127Z,4.80
2022-08-17T02:50:59.059Z,4.78
2022-08-17T02:53:26.029Z,5.28
2022-08-17T02:55:53.040Z,4.82
2022-08-17T02:58:34.958Z,4.45
2022-08-17T03:01:05.179Z,5.30
2022-08-17T03:03:31.858Z,6.07
2022-08-17T03:05:58.493Z,5.15
2022-08-17T03:08:25.451Z,6.00
2022-08-17T03:10:52.210Z,5.50
2022-08-17T03:13:22.188Z,4.70
2022-08-17T03:15:49.210Z,4.45
2022-08-17T03:18:25.653Z,4.85
2022-08-17T03:20:58.584Z,5.05
2022-08-17T03:23:27.495Z,4.43
2022-08-17T03:25:55.912Z,4.65
2022-08-17T03:28:23.532Z,4.38
2022-08-17T03:30:51.151Z,4.25
2022-08-17T03:33:18.497Z,4.82
2022-08-17T03:35:45.425Z,4.40
2022-08-17T03:38:15.003Z,4.93
2022-08-17T03:40:56.853Z,4.82
2022-08-17T03:43:29.572Z,5.25
2022-08-17T03:46:34.266Z,4.38
2022-08-17T03:49:24.500Z,4.60
2022-08-17T03:52:09.927Z,4.28
2022-08-17T03:54:55.526Z,4.50
2022-08-17T03:57:22.289Z,4.28
2022-08-17T03:59:49.348Z,4.65
2022-08-17T04:02:28.437Z,7.45
2022-08-17T04:04:55.010Z,5.93
2022-08-17T04:07:25.949Z,4.65
2022-08-17T04:09:52.662Z,5.78
2022-08-17T04:12:22.982Z,4.80
2022-08-17T04:14:53.619Z,4.63
2022-08-17T04:17:22.830Z,4.65
2022-08-17T04:19:49.281Z,5.57
2022-08-17T04:22:32.817Z,6.88
2022-08-17T04:25:08.766Z,5.05
2022-08-17T04:27:35.677Z,5.57
2022-08-17T04:30:02.470Z,5.03
2022-08-17T04:33:03.713Z,4.85
2022-08-17T04:35:22.064Z,5.15
2022-08-17T04:37:49.065Z,6.55
2022-08-17T04:40:34.865Z,4.40
2022-08-17T04:43:07.152Z,4.80
2022-08-17T04:45:34.446Z,4.38
2022-08-17T04:48:01.130Z,4.32
2022-08-17T04:50:27.775Z,5.22
2022-08-17T04:52:56.216Z,4.97
2022-08-17T04:55:23.214Z,8.48
2022-08-17T04:57:49.777Z,10.18
2022-08-17T05:00:16.492Z,7.55
2022-08-17T05:02:49.946Z,6.80
2022-08-17T05:05:22.727Z,5.63
2022-08-17T05:07:54.321Z,7.43
2022-08-17T05:10:22.713Z,4.57
2022-08-17T05:12:59.407Z,4.80
2022-08-17T05:15:26.184Z,6.00
2022-08-17T05:17:52.798Z,4.68
2022-08-17T05:20:19.358Z,5.80
2022-08-17T05:22:55.010Z,5.28
2022-08-17T05:25:25.551Z,5.05
2022-08-17T05:27:53.134Z,6.43
2022-08-17T05:30:20.204Z,5.40
2022-08-17T05:33:01.991Z,5.75
2022-08-17T05:35:31.587Z,4.90
2022-08-17T05:37:58.417Z,5.00
2022-08-17T05:40:26.489Z,5.57
2022-08-17T05:43:11.565Z,7.00
2022-08-17T05:45:55.606Z,11.93
2022-08-17T05:48:35.649Z,7.72
2022-08-17T05:51:20.986Z,5.25
2022-08-17T05:54:06.936Z,6.47
2022-08-17T05:56:52.586Z,8.25
2022-08-17T05:59:40.535Z,8.77
2022-08-17T06:02:29.618Z,5.35
2022-08-17T06:05:29.758Z,5.10
2022-08-17T06:08:41.062Z,5.63
2022-08-17T06:11:13.366Z,5.80
2022-08-17T06:14:01.702Z,5.10
2022-08-17T06:16:36.123Z,5.60
2022-08-17T06:19:09.975Z,7.65
2022-08-17T06:21:40.818Z,10.15
2022-08-17T06:24:21.884Z,16.35
2022-08-17T06:26:49.843Z,5.53
2022-08-17T06:29:39.655Z,8.75
2022-08-17T06:32:09.189Z,9.52
2022-08-17T06:34:39.470Z,13.05
2022-08-17T06:37:44.537Z,11.55
2022-08-17T06:40:48.800Z,10.02
2022-08-17T06:43:44.050Z,8.40
2022-08-17T06:46:25.353Z,7.60
2022-08-17T06:49:13.229Z,5.20
2022-08-17T06:52:05.253Z,7.72
2022-08-17T06:54:45.538Z,5.43
2022-08-17T06:57:22.244Z,6.53
2022-08-17T07:00:12.473Z,5.72
2022-08-17T07:03:18.817Z,4.95
2022-08-17T07:05:52.793Z,4.95
2022-08-17T07:08:34.997Z,8.40
2022-08-17T07:11:10.903Z,6.05
2022-08-17T07:13:51.146Z,4.88
2022-08-17T07:16:36.288Z,7.75
2022-08-17T07:19:05.596Z,9.70
2022-08-17T07:22:05.096Z,7.18
2022-08-17T07:24:45.099Z,10.93
2022-08-17T07:27:23.144Z,9.70
2022-08-17T07:29:58.786Z,10.30
2022-08-17T07:32:31.720Z,5.93
2022-08-17T07:37:27.614Z,13.65
2022-08-17T07:39:59.717Z,5.97
2022-08-17T07:42:45.107Z,5.85
2022-08-17T07:45:34.869Z,5.80
2022-08-17T07:48:19.905Z,5.00
2022-08-17T07:50:49.719Z,6.00
2022-08-17T07:53:23.085Z,8.45
2022-08-17T07:55:51.529Z,7.30
2022-08-17T07:58:20.932Z,6.57
2022-08-17T08:01:15.208Z,4.70
2022-08-17T08:03:46.113Z,6.10
2022-08-17T08:06:24.788Z,8.88
2022-08-17T08:11:39.219Z,6.05
2022-08-17T08:14:39.595Z,7.40
2022-08-17T08:17:09.361Z,10.68
2022-08-17T08:19:36.471Z,8.18
2022-08-17T08:22:12.621Z,6.82
2022-08-17T08:24:48.201Z,8.40
2022-08-17T08:27:44.666Z,8.48
2022-08-17T08:30:21.679Z,9.68
2022-08-17T08:33:27.243Z,9.50
2022-08-17T08:36:03.276Z,11.98
2022-08-17T08:39:04.756Z,12.57
2022-08-17T08:41:47.841Z,14.00
2022-08-17T08:45:00.177Z,12.88
2022-08-17T08:47:44.942Z,9.20
2022-08-17T08:53:10.527Z,10.95
2022-08-17T08:55:52.888Z,7.97
2022-08-17T08:58:31.660Z,8.68
2022-08-17T09:01:18.284Z,8.75
2022-08-17T09:04:26.083Z,10.60
2022-08-17T09:07:34.654Z,8.55
2022-08-17T09:10:13.865Z,9.82
2022-08-17T09:12:53.053Z,9.70
2022-08-17T09:15:28.344Z,10.00
2022-08-17T09:18:59.924Z,10.32
2022-08-17T09:21:10.095Z,8.32
2022-08-17T09:23:59.505Z,10.77
2022-08-17T09:26:36.762Z,9.73
2022-08-17T09:29:08.593Z,11.20
2022-08-17T09:31:55.957Z,11.15
2022-08-17T09:34:33.065Z,11.15
2022-08-17T09:37:15.613Z,11.65
2022-08-17T09:39:51.306Z,13.20
2022-08-17T09:42:26.810Z,10.95
2022-08-17T09:45:09.708Z,10.02
2022-08-17T09:47:47.955Z,11.68
2022-08-17T09:50:55.304Z,12.07
2022-08-17T09:53:13.738Z,9.90
2022-08-17T09:56:01.675Z,9.88
2022-08-17T09:58:56.302Z,10.15
2022-08-17T10:01:40.626Z,8.57
2022-08-17T10:04:20.419Z,7.95
2022-08-17T10:07:06.074Z,11.13
2022-08-17T10:09:43.878Z,10.40
2022-08-17T10:12:20.313Z,9.15
2022-08-17T10:15:07.999Z,11.07
2022-08-17T10:18:10.642Z,8.07
2022-08-17T10:21:19.597Z,9.07
2022-08-17T10:24:22.140Z,9.48
2022-08-17T10:26:56.298Z,11.80
2022-08-17T10:29:49.776Z,9.68
2022-08-17T10:32:57.486Z,8.85
2022-08-17T10:35:45.293Z,8.93
2022-08-17T10:38:25.307Z,11.13
2022-08-17T10:41:00.292Z,9.88
2022-08-17T10:44:37.297Z,9.75
2022-08-17T10:47:05.781Z,11.48
2022-08-17T10:49:55.862Z,9.88
2022-08-17T10:52:22.793Z,11.30
2022-08-17T10:54:51.364Z,9.43
2022-08-17T10:57:27.222Z,8.07
2022-08-17T10:59:55.768Z,11.00
2022-08-17T11:02:25.894Z,10.20
2022-08-17T11:05:07.335Z,9.30
2022-08-17T11:07:52.577Z,9.73
2022-08-17T11:10:51.737Z,9.60
2022-08-17T11:13:38.066Z,9.10
2022-08-17T11:16:56.658Z,13.23
2022-08-17T11:19:41.655Z,10.57
2022-08-17T11:22:33.525Z,9.50
2022-08-17T11:25:31.586Z,8.50
2022-08-17T11:28:09.215Z,9.48
2022-08-17T11:30:48.716Z,8.75
2022-08-17T11:33:36.841Z,8.55
2022-08-17T11:36:25.038Z,8.45
2022-08-17T11:39:15.769Z,10.18
2022-08-17T11:41:58.111Z,8.40
2022-08-17T11:44:40.462Z,7.00
2022-08-17T11:48:16.052Z,7.83
2022-08-17T11:51:01.813Z,9.88
2022-08-17T11:53:37.405Z,6.72
2022-08-17T11:56:41.122Z,8.30
2022-08-17T11:59:39.906Z,7.43
2022-08-17T12:02:31.673Z,8.50
2022-08-17T12:05:05.111Z,7.75
2022-08-17T12:07:45.002Z,7.25
2022-08-17T12:10:15.984Z,5.95
2022-08-17T12:12:44.058Z,8.00
2022-08-17T12:15:21.356Z,5.63
2022-08-17T12:17:53.689Z,5.80
2022-08-17T12:20:42.468Z,5.20
2022-08-17T12:23:17.876Z,4.85
2022-08-17T12:25:56.600Z,4.88
2022-08-17T12:28:31.793Z,5.85
2022-08-17T12:31:04.481Z,5.75
2022-08-17T12:33:31.097Z,5.18
2022-08-17T12:36:04.510Z,5.78
2022-08-17T12:38:35.078Z,5.53
2022-08-17T12:41:23.817Z,5.22
2022-08-17T12:44:12.892Z,5.95
2022-08-17T12:47:08.307Z,5.38
2022-08-17T12:49:44.304Z,8.40
2022-08-17T12:52:19.670Z,6.80
2022-08-17T12:54:59.669Z,6.43
2022-08-17T12:57:38.229Z,8.43
2022-08-17T13:00:08.136Z,6.88
2022-08-17T13:02:46.902Z,7.10
2022-08-17T13:05:34.882Z,6.93
2022-08-17T13:08:04.622Z,6.88
2022-08-17T13:10:35.925Z,7.13
2022-08-17T13:13:05.750Z,7.20
2022-08-17T13:15:44.404Z,9.07
2022-08-17T13:18:31.650Z,6.57
2022-08-17T13:20:59.909Z,6.72
2022-08-17T13:23:31.370Z,6.63
2022-08-17T13:26:09.061Z,6.20
2022-08-17T13:28:37.429Z,6.32
2022-08-17T13:31:52.148Z,5.88
2022-08-17T13:34:26.727Z,6.18
2022-08-17T13:37:34.852Z,7.55
2022-08-17T13:40:10.921Z,6.25
2022-08-17T13:42:52.819Z,6.30
2022-08-17T13:45:36.095Z,6.32
2022-08-17T13:48:11.820Z,6.40
2022-08-17T13:50:46.868Z,9.40
2022-08-17T13:53:25.046Z,7.55
2022-08-17T13:55:56.164Z,6.85
2022-08-17T13:58:26.652Z,6.30
2022-08-17T14:00:54.242Z,7.70
2022-08-17T14:03:20.852Z,5.15
2022-08-17T14:05:50.222Z,5.22
2022-08-17T14:08:19.437Z,6.63
2022-08-17T14:10:55.726Z,5.60
2022-08-17T14:13:22.781Z,6.18
2022-08-17T14:15:54.711Z,6.47
2022-08-17T14:18:35.610Z,5.80
2022-08-17T14:21:10.061Z,5.45
2022-08-17T14:23:37.490Z,6.38
2022-08-17T14:26:04.688Z,5.30
2022-08-17T14:28:32.031Z,5.43
2022-08-17T14:31:14.014Z,8.10
2022-08-17T14:33:46.032Z,5.75
2022-08-17T14:36:12.441Z,4.55
2022-08-17T14:38:40.374Z,4.93
2022-08-17T14:41:06.788Z,4.90
2022-08-17T14:43:35.178Z,4.82
2022-08-17T14:46:01.716Z,6.68
2022-08-17T14:48:28.874Z,5.00
2022-08-17T14:50:56.582Z,6.10
2022-08-17T14:53:23.115Z,4.80
2022-08-17T14:55:51.068Z,4.53
2022-08-17T14:58:18.261Z,4.47
2022-08-17T15:00:44.843Z,4.38
2022-08-17T15:03:11.704Z,4.88
2022-08-17T15:05:39.375Z,4.85
2022-08-17T15:08:06.959Z,4.93
2022-08-17T15:10:33.711Z,5.25
2022-08-17T15:13:00.455Z,5.57
2022-08-17T15:15:28.223Z,5.00
2022-08-17T15:17:54.794Z,5.05
2022-08-17T15:20:26.229Z,6.82
2022-08-17T15:22:55.163Z,6.72
2022-08-17T15:25:23.201Z,5.82
2022-08-17T15:27:49.918Z,4.80
2022-08-17T15:30:17.359Z,5.40
2022-08-17T15:32:50.676Z,4.97
2022-08-17T15:35:27.937Z,7.53
2022-08-17T15:38:11.789Z,5.85
2022-08-17T15:40:46.480Z,5.75
2022-08-17T15:43:16.029Z,5.85
2022-08-17T15:45:43.561Z,5.68
2022-08-17T15:48:10.522Z,5.05
2022-08-17T15:50:37.237Z,5.28
2022-08-17T15:53:04.721Z,6.57
2022-08-17T15:55:32.124Z,6.55
2022-08-17T15:57:58.702Z,5.63
2022-08-17T16:00:28.142Z,5.43
2022-08-17T16:03:20.308Z,5.13
2022-08-17T16:05:42.501Z,5.18
2022-08-17T16:08:10.785Z,4.75
2022-08-17T16:10:37.239Z,5.55
2022-08-17T16:13:04.137Z,4.88
2022-08-17T16:15:31.713Z,5.68
2022-08-17T16:17:58.546Z,4.60
2022-08-17T16:20:25.023Z,5.00
2022-08-17T16:22:51.857Z,5.32
2022-08-17T16:25:23.271Z,4.55
2022-08-17T16:28:09.828Z,4.47
2022-08-17T16:30:37.269Z,4.60
2022-08-17T16:33:04.576Z,4.25
2022-08-17T16:35:31.353Z,4.22
2022-08-17T16:37:58.665Z,4.40
2022-08-17T16:40:28.353Z,6.07
2022-08-17T16:42:55.855Z,4.85
2022-08-17T16:45:27.405Z,4.75
2022-08-17T16:47:54.587Z,4.35
2022-08-17T16:50:23.325Z,4.90
2022-08-17T16:52:50.587Z,4.72
2022-08-17T16:55:20.701Z,4.85
2022-08-17T16:57:50.709Z,5.28
2022-08-17T17:00:19.391Z,5.45
2022-08-17T17:02:47.857Z,5.85
2022-08-17T17:05:41.185Z,6.05
2022-08-17T17:10:44.266Z,5.18
2022-08-17T17:13:17.215Z,5.00
2022-08-17T17:16:05.371Z,5.85
2022-08-17T17:18:50.971Z,6.05
2022-08-17T17:21:24.417Z,7.38
2022-08-17T17:23:59.656Z,5.40
2022-08-17T17:26:40.307Z,5.68
2022-08-17T17:29:26.726Z,6.13
2022-08-17T17:32:09.306Z,6.13
2022-08-17T17:34:37.900Z,7.75
2022-08-17T17:37:14.277Z,6.25
2022-08-17T17:39:49.925Z,5.57
2022-08-17T17:42:20.922Z,6.43
2022-08-17T17:44:57.798Z,6.15
2022-08-17T17:47:24.250Z,5.80
2022-08-17T17:49:50.878Z,5.97
2022-08-17T17:53:02.024Z,8.55
2022-08-17T17:55:34.543Z,5.20
2022-08-17T17:58:13.542Z,5.07
2022-08-17T18:00:54.750Z,5.18
2022-08-17T18:03:42.381Z,5.93
2022-08-17T18:06:33.017Z,6.15
2022-08-17T18:09:12.164Z,5.82
2022-08-17T18:11:54.055Z,6.95
2022-08-17T18:14:40.798Z,5.72
2022-08-17T18:17:07.217Z,6.30
2022-08-17T18:19:34.175Z,6.25
2022-08-17T18:22:14.727Z,5.53
2022-08-17T18:24:44.199Z,5.10
2022-08-17T18:27:32.197Z,5.32
2022-08-17T18:30:23.295Z,8.70
2022-08-17T18:32:49.939Z,10.35
2022-08-17T18:35:36.696Z,11.25
2022-08-17T18:38:27.841Z,10.25
2022-08-17T18:41:02.423Z,9.32
2022-08-17T18:43:52.747Z,8.25
2022-08-17T18:46:30.162Z,6.38
2022-08-17T18:49:03.305Z,6.05
2022-08-17T18:51:42.670Z,5.53
2022-08-17T18:54:20.777Z,5.32
2022-08-17T18:56:59.057Z,5.30
2022-08-17T18:59:40.732Z,5.57
2022-08-17T19:02:24.860Z,4.90
2022-08-17T19:05:00.888Z,5.25
2022-08-17T19:07:39.067Z,5.13
2022-08-17T19:10:16.274Z,4.95
2022-08-17T19:13:12.846Z,4.97
2022-08-17T19:16:13.087Z,5.47
2022-08-17T19:18:53.896Z,5.55
2022-08-17T19:21:44.012Z,6.10
2022-08-17T19:24:22.659Z,6.65
2022-08-17T19:26:56.905Z,6.35
2022-08-17T19:29:53.564Z,6.50
2022-08-17T19:32:25.337Z,6.53
2022-08-17T19:34:52.158Z,6.07
2022-08-17T19:37:30.725Z,5.90
2022-08-17T19:40:24.395Z,5.85
2022-08-17T19:43:20.575Z,5.70
2022-08-17T19:46:12.071Z,5.78
2022-08-17T19:48:56.187Z,6.55
2022-08-17T19:51:38.675Z,6.38
2022-08-17T19:54:08.040Z,5.70
2022-08-17T19:57:18.152Z,6.65
2022-08-17T19:59:50.658Z,5.70
2022-08-17T20:02:26.338Z,6.95
2022-08-17T20:04:58.633Z,6.43
2022-08-17T20:07:49.545Z,6.18
2022-08-17T20:10:54.649Z,5.75
2022-08-17T20:13:33.371Z,5.22
2022-08-17T20:16:01.161Z,5.50
2022-08-17T20:18:43.953Z,5.78
2022-08-17T20:21:26.795Z,5.45
2022-08-17T20:23:59.709Z,6.40
2022-08-17T20:29:13.709Z,6.22
2022-08-17T20:31:45.772Z,6.50
2022-08-17T20:34:33.570Z,6.13
2022-08-17T20:37:29.161Z,7.22
2022-08-17T20:39:55.588Z,5.68
2022-08-17T20:42:22.047Z,5.75
2022-08-17T20:44:51.909Z,5.47
2022-08-17T20:47:27.135Z,5.25
2022-08-17T20:50:01.991Z,6.82
2022-08-17T20:52:50.773Z,6.78
2022-08-17T20:55:51.171Z,10.25
2022-08-17T20:58:29.832Z,6.55
2022-08-17T21:00:57.801Z,5.93
2022-08-17T21:03:24.386Z,6.20
2022-08-17T21:06:00.227Z,6.25
2022-08-17T21:08:45.200Z,6.28
2022-08-17T21:12:02.416Z,6.53
2022-08-17T21:14:41.680Z,6.40
2022-08-17T21:17:34.926Z,5.82
2022-08-17T21:20:32.645Z,7.70
2022-08-17T21:23:41.008Z,6.57
2022-08-17T21:26:53.654Z,7.57
2022-08-17T21:29:30.943Z,6.10
2022-08-17T21:31:59.438Z,6.18
2022-08-17T21:34:39.020Z,5.95
2022-08-17T21:37:22.126Z,5.78
2022-08-17T21:40:12.833Z,6.07
2022-08-17T21:42:47.729Z,6.30
2022-08-17T21:45:31.863Z,6.07
2022-08-17T21:48:15.291Z,5.90
2022-08-17T21:50:45.403Z,7.55
2022-08-17T21:53:21.742Z,12.93
2022-08-17T21:55:48.921Z,11.85
2022-08-17T21:58:33.315Z,10.73
2022-08-17T22:01:19.874Z,10.70
2022-08-17T22:04:11.154Z,13.40
2022-08-17T22:06:57.335Z,12.52
2022-08-17T22:09:42.698Z,15.13
2022-08-17T22:12:18.676Z,12.02
2022-08-17T22:14:56.334Z,13.05
2022-08-17T22:17:28.747Z,14.15
2022-08-17T22:20:01.274Z,14.00
2022-08-17T22:22:55.803Z,14.00
2022-08-17T22:25:24.805Z,13.45
2022-08-17T22:27:58.229Z,14.80
2022-08-17T22:30:33.141Z,13.73
2022-08-17T22:33:01.393Z,14.20
2022-08-17T22:35:36.044Z,13.43
2022-08-17T22:38:20.906Z,14.07
2022-08-17T22:40:50.766Z,14.50
2022-08-17T22:43:21.215Z,13.55
2022-08-17T22:45:55.590Z,13.80
2022-08-17T22:48:26.722Z,13.80
2022-08-17T22:51:12.809Z,12.52
2022-08-17T22:54:11.402Z,13.80
2022-08-17T22:56:56.693Z,12.70
2022-08-17T22:59:55.928Z,14.52
2022-08-17T23:02:27.409Z,14.82
2022-08-17T23:05:09.977Z,13.60
2022-08-17T23:07:36.746Z,11.40
2022-08-17T23:10:06.372Z,11.95
2022-08-17T23:12:37.599Z,10.40
2022-08-17T23:15:10.589Z,10.50
2022-08-17T23:17:37.869Z,10.40
2022-08-17T23:20:11.966Z,9.63
2022-08-17T23:22:51.249Z,9.90
2022-08-17T23:25:27.744Z,10.13
2022-08-17T23:27:55.358Z,8.88
2022-08-17T23:30:25.284Z,10.65
2022-08-17T23:32:53.906Z,10.18
2022-08-17T23:35:39.845Z,12.13
2022-08-17T23:38:09.133Z,11.18
2022-08-17T23:40:35.681Z,10.82
2022-08-17T23:43:09.858Z,10.45
2022-08-17T23:45:50.373Z,9.77
2022-08-17T23:48:28.401Z,12.93
2022-08-17T23:51:24.098Z,12.18
2022-08-17T23:53:55.779Z,13.75
2022-08-17T23:56:27.936Z,14.70
2022-08-17T23:58:55.342Z,13.75
